Time;durP1;ratioP1;P1;durP2;ratioP2;P2;SDS_P1;SDS_P2;PMS_P1;PMS_P2;Temp;Humidity;BMP_temperature;BMP_pressure;BME280_temperature;BME280_humidity;BME280_pressure;Samples;Min_cycle;Max_cycle;Signal;HPM_P1;HPM_P2
2023/12/14 00:02:03;;;;;;;8.98;6.45;;;;;;;7.60;nan;99147.81;5058496;28;20544;-69
2023/12/14 00:04:29;;;;;;;8.45;5.65;;;;;;;7.55;nan;99144.34;5058424;28;20028;-71
2023/12/14 00:06:54;;;;;;;8.50;5.43;;;;;;;7.67;nan;99173.88;5062324;28;20399;-71
2023/12/14 00:09:20;;;;;;;8.50;5.95;;;;;;;7.62;nan;99166.72;5048034;28;20016;-69
2023/12/14 00:11:45;;;;;;;8.18;5.97;;;;;;;7.54;nan;99154.03;5061607;28;20017;-69
2023/12/14 00:14:11;;;;;;;7.75;5.70;;;;;;;7.67;nan;99169.44;5060680;28;20053;-70
2023/12/14 00:16:36;;;;;;;7.18;5.45;;;;;;;7.63;nan;99160.44;5064754;28;20130;-68
2023/12/14 00:19:02;;;;;;;7.47;5.40;;;;;;;7.61;nan;99164.34;5046466;28;20036;-71
2023/12/14 00:21:27;;;;;;;7.30;5.22;;;;;;;7.75;nan;99170.09;5045362;28;20422;-70
2023/12/14 00:23:53;;;;;;;8.23;5.63;;;;;;;7.69;nan;99171.03;5062746;28;20111;-70
2023/12/14 00:26:18;;;;;;;8.10;5.45;;;;;;;7.74;nan;99177.16;5061962;28;20052;-70
2023/12/14 00:28:44;;;;;;;8.43;5.75;;;;;;;7.60;nan;99179.25;5064971;28;20032;-71
2023/12/14 00:31:09;;;;;;;10.68;6.40;;;;;;;7.63;nan;99210.22;5065352;28;20094;-70
2023/12/14 00:33:35;;;;;;;12.25;7.20;;;;;;;7.71;nan;99231.84;5064791;28;20029;-74
2023/12/14 00:36:19;;;;;;;10.77;7.15;;;;;;;7.75;nan;99243.44;5052064;28;20029;-69
2023/12/14 00:38:46;;;;;;;9.18;6.53;;;;;;;7.66;nan;99235.16;5062733;28;20445;-70
2023/12/14 00:41:11;;;;;;;11.63;6.63;;;;;;;7.67;nan;99242.78;5063391;28;20387;-71
2023/12/14 00:43:38;;;;;;;10.55;6.20;;;;;;;7.64;nan;99260.81;5064437;28;20047;-70
2023/12/14 00:46:03;;;;;;;10.13;6.32;;;;;;;7.55;nan;99249.13;5062226;28;20765;-69
2023/12/14 00:48:29;;;;;;;9.70;6.60;;;;;;;7.48;nan;99254.50;5053909;28;20029;-69
2023/12/14 00:50:54;;;;;;;12.38;7.25;;;;;;;7.48;nan;99272.03;5055836;28;20028;-73
2023/12/14 00:53:20;;;;;;;10.05;6.60;;;;;;;7.43;nan;99249.94;5065414;28;20055;-70
2023/12/14 00:55:45;;;;;;;9.57;6.15;;;;;;;7.48;nan;99269.41;5055983;28;20693;-70
2023/12/14 00:58:15;;;;;;;8.00;5.43;;;;;;;7.52;nan;99284.44;5046666;28;20028;-70
2023/12/14 01:00:41;;;;;;;8.45;5.60;;;;;;;7.50;nan;99286.47;5063569;28;20020;-70
2023/12/14 01:03:09;;;;;;;9.48;5.60;;;;;;;7.47;nan;99286.97;5063283;28;20483;-70
2023/12/14 01:05:34;;;;;;;9.32;6.18;;;;;;;7.36;nan;99285.16;5045245;28;20046;-70
2023/12/14 01:08:00;;;;;;;10.00;6.82;;;;;;;7.39;nan;99300.41;5065018;28;20031;-72
2023/12/14 01:10:52;;;;;;;8.52;5.75;;;;;;;7.36;nan;99303.47;5065133;28;20024;-70
2023/12/14 01:13:17;;;;;;;11.25;6.55;;;;;;;7.41;nan;99308.81;5059041;28;20490;-70
2023/12/14 01:15:43;;;;;;;12.27;7.18;;;;;;;7.41;nan;99298.34;5063339;28;20036;-70
2023/12/14 01:18:08;;;;;;;11.85;6.95;;;;;;;7.34;nan;99292.44;5060225;28;20458;-73
2023/12/14 01:20:36;;;;;;;9.45;6.13;;;;;;;7.36;nan;99299.03;5060923;28;20024;-72
2023/12/14 01:23:02;;;;;;;10.75;6.38;;;;;;;7.31;nan;99306.78;5052205;28;20037;-70
2023/12/14 01:25:27;;;;;;;10.30;6.40;;;;;;;7.17;nan;99284.50;5066605;28;20043;-72
2023/12/14 01:27:53;;;;;;;9.00;5.78;;;;;;;7.09;nan;99269.94;5044589;28;20378;-69
2023/12/14 01:30:18;;;;;;;11.27;7.13;;;;;;;7.17;nan;99293.13;5058752;28;20044;-69
2023/12/14 01:32:44;;;;;;;10.73;6.65;;;;;;;7.21;nan;99315.22;5059292;28;20028;-70
2023/12/14 01:35:09;;;;;;;10.18;6.72;;;;;;;7.13;nan;99297.22;5052897;28;20078;-71
2023/12/14 01:37:35;;;;;;;9.40;6.65;;;;;;;7.18;nan;99307.03;5077599;28;20071;-69
2023/12/14 01:40:00;;;;;;;10.60;6.32;;;;;;;7.06;nan;99277.44;5074633;28;20020;-72
2023/12/14 01:42:26;;;;;;;10.45;6.72;;;;;;;7.10;nan;99274.13;5076497;28;20021;-71
2023/12/14 01:44:51;;;;;;;11.55;6.57;;;;;;;7.08;nan;99289.28;5076200;28;20087;-70
2023/12/14 01:47:46;;;;;;;11.73;7.28;;;;;;;7.13;nan;99278.13;5074337;28;20033;-71
2023/12/14 01:50:12;;;;;;;12.00;6.38;;;;;;;6.76;nan;99215.59;5004720;28;20305;-71
2023/12/14 01:52:37;;;;;;;12.27;7.07;;;;;;;6.92;nan;99219.31;5009256;28;20519;-71
2023/12/14 01:55:03;;;;;;;12.80;7.40;;;;;;;7.06;nan;99206.78;5010634;28;20539;-71
2023/12/14 01:57:29;;;;;;;12.57;7.50;;;;;;;6.92;nan;99201.81;4999231;28;20037;-71
2023/12/14 01:59:54;;;;;;;12.13;7.68;;;;;;;6.93;nan;99242.63;5000716;28;20028;-71
2023/12/14 02:02:20;;;;;;;13.05;7.85;;;;;;;6.82;nan;99275.66;5003272;28;20034;-70
2023/12/14 02:04:45;;;;;;;14.73;8.23;;;;;;;6.98;nan;99318.63;5005721;28;20040;-70
2023/12/14 02:07:11;;;;;;;14.60;8.65;;;;;;;6.89;nan;99309.53;5011781;28;20447;-70
2023/12/14 02:09:36;;;;;;;15.30;8.52;;;;;;;6.89;nan;99306.13;5007754;28;20032;-70
2023/12/14 02:12:02;;;;;;;15.68;9.02;;;;;;;7.01;nan;99333.09;4995915;28;20137;-70
2023/12/14 02:14:27;;;;;;;17.42;9.70;;;;;;;7.01;nan;99339.13;5005232;28;20042;-71
2023/12/14 02:16:53;;;;;;;18.17;10.02;;;;;;;7.00;nan;99327.06;5007422;28;20062;-70
2023/12/14 02:19:18;;;;;;;17.70;9.63;;;;;;;7.05;nan;99323.78;5006291;28;20034;-70
2023/12/14 02:21:44;;;;;;;17.77;10.07;;;;;;;7.03;nan;99307.50;5007338;28;20041;-69
2023/12/14 02:24:09;;;;;;;15.88;9.23;;;;;;;7.10;nan;99312.63;5006154;28;20116;-69
2023/12/14 02:26:34;;;;;;;17.92;9.55;;;;;;;7.03;nan;99295.19;5029556;28;20043;-69
2023/12/14 02:29:00;;;;;;;15.32;8.80;;;;;;;7.06;nan;99290.53;5060422;28;20040;-68
2023/12/14 02:31:25;;;;;;;18.48;8.85;;;;;;;6.98;nan;99297.69;5059482;28;20025;-71
2023/12/14 02:33:51;;;;;;;17.05;9.75;;;;;;;7.03;nan;99297.03;5054394;28;20028;-70
2023/12/14 02:36:16;;;;;;;15.85;8.60;;;;;;;6.84;nan;99261.53;5047260;28;20082;-72
2023/12/14 02:38:41;;;;;;;16.95;9.20;;;;;;;7.01;nan;99285.97;5056292;28;20104;-69
2023/12/14 02:41:07;;;;;;;15.93;8.82;;;;;;;7.01;nan;99297.25;5059423;28;20019;-71
2023/12/14 02:43:33;;;;;;;15.70;9.10;;;;;;;7.01;nan;99314.78;5055062;28;20682;-70
2023/12/14 02:46:01;;;;;;;17.88;9.52;;;;;;;6.94;nan;99301.81;5057531;28;20560;-70
2023/12/14 02:48:28;;;;;;;17.33;9.23;;;;;;;6.94;nan;99314.91;5038631;28;20033;-70
2023/12/14 02:50:54;;;;;;;15.98;9.35;;;;;;;6.94;nan;99309.66;5054383;28;20444;-70
2023/12/14 02:53:19;;;;;;;16.92;9.05;;;;;;;6.91;nan;99298.84;5055878;28;20128;-70
2023/12/14 02:55:44;;;;;;;15.57;8.88;;;;;;;6.98;nan;99296.91;5057220;28;20620;-70
2023/12/14 02:58:10;;;;;;;16.63;9.10;;;;;;;6.89;nan;99278.13;5042318;28;20035;-70
2023/12/14 03:00:36;;;;;;;15.52;8.48;;;;;;;6.89;nan;99278.13;5056839;28;20040;-71
2023/12/14 03:03:01;;;;;;;16.30;9.18;;;;;;;6.91;nan;99280.53;5057666;28;20032;-70
2023/12/14 03:05:27;;;;;;;16.52;8.77;;;;;;;6.90;nan;99307.72;5058432;28;20028;-70
2023/12/14 03:07:52;;;;;;;19.35;9.23;;;;;;;6.85;nan;99339.81;5056571;28;20083;-70
2023/12/14 03:10:17;;;;;;;15.98;8.23;;;;;;;6.84;nan;99371.44;5057087;28;20039;-71
2023/12/14 03:12:43;;;;;;;20.38;9.50;;;;;;;6.92;nan;99392.03;5043021;28;20085;-70
2023/12/14 03:15:09;;;;;;;18.98;9.95;;;;;;;6.78;nan;99392.25;5061521;28;20123;-70
2023/12/14 03:17:34;;;;;;;16.90;8.93;;;;;;;6.82;nan;99389.97;5037370;28;20033;-70
2023/12/14 03:19:59;;;;;;;18.08;10.25;;;;;;;6.90;nan;99399.31;5056489;28;20107;-70
2023/12/14 03:22:25;;;;;;;134.77;21.98;;;;;;;6.97;nan;99379.88;5058075;28;20111;-70
2023/12/14 03:24:50;;;;;;;20.38;10.95;;;;;;;7.09;nan;99381.69;5058634;28;20057;-71
2023/12/14 03:27:16;;;;;;;18.65;9.23;;;;;;;7.10;nan;99362.34;5042188;28;20711;-70
2023/12/14 03:29:41;;;;;;;19.50;9.63;;;;;;;7.05;nan;99370.09;5041027;28;20033;-70
2023/12/14 03:32:07;;;;;;;17.55;8.95;;;;;;;7.02;nan;99348.56;5054108;28;20034;-71
2023/12/14 03:34:32;;;;;;;20.10;9.55;;;;;;;6.89;nan;99340.94;5051914;28;20117;-71
2023/12/14 03:36:58;;;;;;;17.98;9.50;;;;;;;6.95;nan;99350.50;5044723;28;20067;-71
2023/12/14 03:39:23;;;;;;;18.25;9.43;;;;;;;6.80;nan;99326.63;5054859;28;20025;-69
2023/12/14 03:41:49;;;;;;;20.95;10.13;;;;;;;6.88;nan;99346.41;5040554;28;20032;-68
2023/12/14 03:44:14;;;;;;;18.17;9.82;;;;;;;6.87;nan;99352.66;5058831;28;20043;-69
2023/12/14 03:46:40;;;;;;;19.13;10.10;;;;;;;6.83;nan;99354.94;5047090;28;20430;-69
2023/12/14 03:49:05;;;;;;;17.27;9.43;;;;;;;6.84;nan;99369.59;5043585;28;20144;-68
2023/12/14 03:51:31;;;;;;;19.80;10.00;;;;;;;6.95;nan;99386.34;5044900;28;20115;-69
2023/12/14 03:53:56;;;;;;;19.25;10.25;;;;;;;6.88;nan;99389.06;5053041;28;20040;-70
2023/12/14 03:56:22;;;;;;;20.65;10.30;;;;;;;6.95;nan;99408.09;5051685;28;20029;-70
2023/12/14 03:58:47;;;;;;;25.48;11.07;;;;;;;6.94;nan;99419.59;5057707;28;20029;-70
2023/12/14 04:01:18;;;;;;;20.92;11.02;;;;;;;6.85;nan;99412.25;5055977;28;20111;-70
2023/12/14 04:03:43;;;;;;;21.45;10.93;;;;;;;6.84;nan;99421.94;5060238;28;20049;-69
2023/12/14 04:06:09;;;;;;;27.70;11.10;;;;;;;6.78;nan;99415.78;5055637;28;20229;-70
2023/12/14 04:08:34;;;;;;;23.15;11.18;;;;;;;6.89;nan;99429.13;5038934;28;20027;-71
2023/12/14 04:10:59;;;;;;;23.25;10.85;;;;;;;6.88;nan;99430.94;5054223;28;20036;-70
2023/12/14 04:13:25;;;;;;;23.48;11.15;;;;;;;6.80;nan;99420.81;5053197;28;21127;-70
2023/12/14 04:15:50;;;;;;;26.00;11.52;;;;;;;6.92;nan;99431.28;5056929;28;20462;-71
2023/12/14 04:18:16;;;;;;;23.75;11.30;;;;;;;6.89;nan;99429.91;5058584;28;20938;-72
2023/12/14 04:20:41;;;;;;;25.83;11.57;;;;;;;6.85;nan;99412.25;5058664;28;20060;-70
2023/12/14 04:23:06;;;;;;;28.63;12.05;;;;;;;6.84;nan;99408.84;5037317;28;20025;-71
2023/12/14 04:25:32;;;;;;;31.08;12.45;;;;;;;6.93;nan;99425.03;5056136;28;20163;-70
2023/12/14 04:27:57;;;;;;;32.15;13.25;;;;;;;6.84;nan;99408.84;5053410;28;20494;-70
2023/12/14 04:30:23;;;;;;;29.35;12.30;;;;;;;6.90;nan;99412.41;5065534;28;20029;-70
2023/12/14 04:32:48;;;;;;;25.80;12.20;;;;;;;6.86;nan;99409.44;5061883;28;20001;-70
2023/12/14 04:35:14;;;;;;;26.33;11.65;;;;;;;6.96;nan;99414.91;5066251;28;20240;-71
2023/12/14 04:37:39;;;;;;;27.92;12.60;;;;;;;6.95;nan;99423.00;5080148;28;20090;-71
2023/12/14 04:40:05;;;;;;;28.55;12.43;;;;;;;6.95;nan;99417.75;5056850;28;20025;-71
2023/12/14 04:42:30;;;;;;;26.15;12.70;;;;;;;6.98;nan;99431.19;5056764;28;20375;-70
2023/12/14 04:44:56;;;;;;;27.75;13.35;;;;;;;6.92;nan;99424.25;5074120;28;20024;-70
2023/12/14 04:47:21;;;;;;;26.55;13.18;;;;;;;6.96;nan;99409.66;5062467;28;20035;-70
2023/12/14 04:49:47;;;;;;;29.02;13.23;;;;;;;6.88;nan;99402.16;5055127;28;20025;-70
2023/12/14 04:52:13;;;;;;;31.48;13.07;;;;;;;6.94;nan;99422.22;5056726;28;20604;-70
2023/12/14 04:54:40;;;;;;;31.27;13.80;;;;;;;6.93;nan;99412.75;5056599;28;20479;-71
2023/12/14 04:57:06;;;;;;;31.27;13.75;;;;;;;6.92;nan;99415.56;5061040;28;20056;-70
2023/12/14 04:59:32;;;;;;;29.42;13.93;;;;;;;6.92;nan;99423.44;5058532;28;20037;-71
2023/12/14 05:01:57;;;;;;;32.45;15.10;;;;;;;6.98;nan;99435.63;5059397;28;20675;-71
2023/12/14 05:04:23;;;;;;;33.35;14.95;;;;;;;6.95;nan;99426.41;5059881;28;20035;-69
2023/12/14 05:06:48;;;;;;;34.05;15.13;;;;;;;7.05;nan;99441.56;5058606;28;20048;-70
2023/12/14 05:09:14;;;;;;;39.50;15.77;;;;;;;7.01;nan;99433.34;5040443;28;20096;-70
2023/12/14 05:11:39;;;;;;;38.22;16.05;;;;;;;7.05;nan;99431.09;5059873;28;20153;-70
2023/12/14 05:14:05;;;;;;;41.30;15.95;;;;;;;6.97;nan;99421.75;5054028;28;20796;-72
2023/12/14 05:16:30;;;;;;;39.13;16.80;;;;;;;7.01;nan;99425.50;5048197;28;20032;-71
2023/12/14 05:18:57;;;;;;;47.40;16.73;;;;;;;7.01;nan;99428.09;5063375;28;20097;-71
2023/12/14 05:21:23;;;;;;;55.92;18.10;;;;;;;6.94;nan;99416.97;5064400;28;20068;-70
2023/12/14 05:23:48;;;;;;;51.90;17.55;;;;;;;7.06;nan;99424.81;5058208;28;20109;-70
2023/12/14 05:26:14;;;;;;;55.65;18.55;;;;;;;6.93;nan;99411.97;5059144;28;20036;-71
2023/12/14 05:28:39;;;;;;;124.72;26.70;;;;;;;6.90;nan;99407.19;5061363;28;20033;-70
2023/12/14 05:31:05;;;;;;;48.03;16.48;;;;;;;6.93;nan;99412.75;5062384;28;20028;-70
2023/12/14 05:33:31;;;;;;;63.67;18.90;;;;;;;7.11;nan;99451.16;5060541;28;20058;-70
2023/12/14 05:35:56;;;;;;;57.22;18.15;;;;;;;7.02;nan;99450.66;5058823;28;20469;-70
2023/12/14 05:38:22;;;;;;;44.97;17.73;;;;;;;7.07;nan;99472.75;5060343;28;20044;-71
2023/12/14 05:40:47;;;;;;;58.75;18.88;;;;;;;7.12;nan;99480.72;5049660;28;20410;-70
2023/12/14 05:43:13;;;;;;;47.95;17.98;;;;;;;7.02;nan;99468.97;5049062;28;20036;-71
2023/12/14 05:45:38;;;;;;;58.10;17.95;;;;;;;6.95;nan;99467.50;5060068;28;20028;-71
2023/12/14 05:48:07;;;;;;;89.53;22.98;;;;;;;7.10;nan;99486.19;5063860;28;20394;-71
2023/12/14 05:50:32;;;;;;;126.53;25.95;;;;;;;7.13;nan;99495.41;5040240;28;20021;-70
2023/12/14 05:52:58;;;;;;;56.78;17.63;;;;;;;6.99;nan;99479.09;5061904;28;20071;-71
2023/12/14 05:55:23;;;;;;;60.22;18.25;;;;;;;7.08;nan;99490.84;5055143;28;20163;-71
2023/12/14 05:57:49;;;;;;;50.28;17.10;;;;;;;7.14;nan;99497.03;5058806;28;20116;-71
2023/12/14 06:00:15;;;;;;;53.25;17.85;;;;;;;7.01;nan;99472.59;5059148;28;20055;-70
2023/12/14 06:02:41;;;;;;;47.08;17.45;;;;;;;7.10;nan;99488.00;5060659;28;20031;-71
2023/12/14 06:05:08;;;;;;;61.60;20.80;;;;;;;7.12;nan;99494.63;5039970;28;20037;-71
2023/12/14 06:07:33;;;;;;;81.93;26.13;;;;;;;7.17;nan;99523.53;5057918;28;20029;-70
2023/12/14 06:10:00;;;;;;;89.95;29.30;;;;;;;7.09;nan;99518.63;5060287;28;20693;-71
2023/12/14 06:12:26;;;;;;;69.28;22.83;;;;;;;7.03;nan;99512.44;5045766;28;20020;-71
2023/12/14 06:14:51;;;;;;;52.25;20.65;;;;;;;7.15;nan;99522.16;5058793;28;20765;-71
2023/12/14 06:17:17;;;;;;;50.42;20.10;;;;;;;7.16;nan;99537.66;5060960;28;20033;-70
2023/12/14 06:19:42;;;;;;;49.70;19.23;;;;;;;7.00;nan;99526.00;5062719;28;20154;-70
2023/12/14 06:22:08;;;;;;;50.13;18.33;;;;;;;7.07;nan;99539.00;5048820;28;20025;-74
2023/12/14 06:24:33;;;;;;;52.65;18.35;;;;;;;6.95;nan;99507.53;5057719;28;20539;-75
2023/12/14 06:26:59;;;;;;;87.85;22.42;;;;;;;7.12;nan;99543.56;5042861;28;20031;-74
2023/12/14 06:29:24;;;;;;;51.03;18.90;;;;;;;7.07;nan;99539.00;5060531;28;20036;-74
2023/12/14 06:31:50;;;;;;;50.53;18.45;;;;;;;7.01;nan;99530.19;5056781;28;20021;-75
2023/12/14 06:34:16;;;;;;;53.97;19.17;;;;;;;7.12;nan;99541.72;5043051;28;20036;-74
2023/12/14 06:36:43;;;;;;;45.72;18.40;;;;;;;7.19;nan;99554.75;5055279;28;20029;-74
2023/12/14 06:39:10;;;;;;;45.65;16.90;;;;;;;7.15;nan;99545.72;5060723;28;20029;-75
2023/12/14 06:41:36;;;;;;;48.13;18.33;;;;;;;7.19;nan;99559.97;5039726;28;20583;-75
2023/12/14 06:44:01;;;;;;;54.78;19.60;;;;;;;7.17;nan;99562.00;5060700;28;20039;-76
2023/12/14 06:46:26;;;;;;;46.42;18.33;;;;;;;7.08;nan;99552.88;5044214;28;20035;-74
2023/12/14 06:48:53;;;;;;;45.42;17.63;;;;;;;7.16;nan;99563.03;5039601;28;20029;-74
2023/12/14 06:51:19;;;;;;;52.03;17.52;;;;;;;7.14;nan;99571.13;5056485;28;20029;-74
2023/12/14 06:53:45;;;;;;;46.28;18.08;;;;;;;7.05;nan;99548.88;5055459;28;20484;-74
2023/12/14 06:56:11;;;;;;;43.65;19.13;;;;;;;7.17;nan;99568.03;5057938;28;20024;-74
2023/12/14 06:58:38;;;;;;;44.15;18.15;;;;;;;7.20;nan;99567.59;5058471;28;20031;-74
2023/12/14 07:01:04;;;;;;;44.58;17.85;;;;;;;7.14;nan;99573.72;5057332;28;20112;-74
2023/12/14 07:03:29;;;;;;;48.30;18.42;;;;;;;7.08;nan;99558.91;5042040;28;20024;-75
2023/12/14 07:05:55;;;;;;;44.35;17.70;;;;;;;7.05;nan;99564.59;5055717;28;20104;-74
2023/12/14 07:08:20;;;;;;;46.75;17.63;;;;;;;7.10;nan;99574.41;5037902;28;20066;-74
2023/12/14 07:10:45;;;;;;;44.25;18.10;;;;;;;7.17;nan;99593.44;5060236;28;20043;-74
2023/12/14 07:13:11;;;;;;;49.15;19.73;;;;;;;7.12;nan;99590.69;5060531;28;20027;-74
2023/12/14 07:15:36;;;;;;;43.65;18.77;;;;;;;7.18;nan;99592.41;5056570;28;20599;-72
2023/12/14 07:18:02;;;;;;;43.95;18.80;;;;;;;7.16;nan;99599.66;5061513;28;20090;-74
2023/12/14 07:20:27;;;;;;;41.50;17.67;;;;;;;7.13;nan;99600.91;5058337;28;20440;-73
2023/12/14 07:22:53;;;;;;;41.53;17.92;;;;;;;7.07;nan;99588.72;5060745;28;20048;-74
2023/12/14 07:25:18;;;;;;;40.38;17.70;;;;;;;7.16;nan;99610.97;5042865;28;20067;-74
2023/12/14 07:27:44;;;;;;;39.70;17.10;;;;;;;7.05;nan;99592.59;5062728;28;20049;-73
2023/12/14 07:30:10;;;;;;;41.03;18.20;;;;;;;7.11;nan;99600.38;5058684;28;20024;-74
2023/12/14 07:32:36;;;;;;;44.70;18.58;;;;;;;7.08;nan;99605.22;5038106;28;20024;-73
2023/12/14 07:35:01;;;;;;;38.25;17.10;;;;;;;7.02;nan;99597.25;5043359;28;20429;-74
2023/12/14 07:37:26;;;;;;;37.05;17.58;;;;;;;7.09;nan;99617.28;5063541;28;20055;-74
2023/12/14 07:39:52;;;;;;;38.58;18.48;;;;;;;6.97;nan;99593.69;5075502;28;20089;-74
2023/12/14 07:42:19;;;;;;;43.20;20.10;;;;;;;7.14;nan;99626.09;5079420;28;20025;-73
2023/12/14 07:44:46;;;;;;;42.80;19.60;;;;;;;7.12;nan;99622.09;5076488;28;20028;-73
2023/12/14 07:47:11;;;;;;;42.83;19.10;;;;;;;7.18;nan;99621.19;5084644;28;20055;-73
2023/12/14 07:49:37;;;;;;;46.38;19.20;;;;;;;7.18;nan;99627.25;5072198;28;20025;-73
2023/12/14 07:52:02;;;;;;;42.58;19.85;;;;;;;7.11;nan;99618.69;5063302;28;20056;-74
2023/12/14 07:54:28;;;;;;;41.10;18.48;;;;;;;7.14;nan;99627.91;5078684;28;20020;-74
2023/12/14 07:56:54;;;;;;;40.45;19.75;;;;;;;7.18;nan;99626.44;5080637;28;20020;-74
2023/12/14 07:59:19;;;;;;;40.92;18.05;;;;;;;7.16;nan;99616.22;5060033;28;20082;-75
2023/12/14 08:01:45;;;;;;;37.95;18.33;;;;;;;7.19;nan;99628.84;5058813;28;20028;-73
2023/12/14 08:04:11;;;;;;;46.20;21.45;;;;;;;7.06;nan;99613.28;5057733;28;20467;-74
2023/12/14 08:06:39;;;;;;;60.65;26.40;;;;;;;7.12;nan;99629.97;5057823;28;20021;-74
2023/12/14 08:09:05;;;;;;;67.53;28.95;;;;;;;7.26;nan;99651.53;5056843;28;20040;-73
2023/12/14 08:11:31;;;;;;;66.18;28.30;;;;;;;7.20;nan;99654.00;5057936;28;20021;-73
2023/12/14 08:13:56;;;;;;;66.30;29.45;;;;;;;7.17;nan;99645.81;5057726;28;20051;-73
2023/12/14 08:16:22;;;;;;;49.72;23.58;;;;;;;7.05;nan;99621.38;5040834;28;20453;-72
2023/12/14 08:18:48;;;;;;;44.15;20.90;;;;;;;7.09;nan;99633.00;5055250;28;20036;-74
2023/12/14 08:21:14;;;;;;;45.50;21.85;;;;;;;7.03;nan;99616.38;5055890;28;20099;-74
2023/12/14 08:23:39;;;;;;;48.17;22.65;;;;;;;7.26;nan;99654.94;5059547;28;20074;-75
2023/12/14 08:26:05;;;;;;;53.50;24.10;;;;;;;7.23;nan;99637.88;5058315;28;20032;-73
2023/12/14 08:28:30;;;;;;;42.78;22.95;;;;;;;7.30;nan;99663.94;5060725;28;20027;-72
2023/12/14 08:31:01;;;;;;;50.83;24.73;;;;;;;7.23;nan;99656.19;5050111;28;20090;-74
2023/12/14 08:33:27;;;;;;;59.42;26.95;;;;;;;7.36;nan;99673.53;5060452;28;20025;-73
2023/12/14 08:35:53;;;;;;;54.90;24.30;;;;;;;7.28;nan;99654.72;5042309;28;20035;-73
2023/12/14 08:38:18;;;;;;;62.90;28.27;;;;;;;7.34;nan;99659.88;5045274;28;20564;-73
2023/12/14 08:40:44;;;;;;;59.35;27.63;;;;;;;7.45;nan;99672.22;5059559;28;21094;-73
2023/12/14 08:43:09;;;;;;;51.08;26.15;;;;;;;7.43;nan;99663.00;5059631;28;20062;-74
2023/12/14 08:45:34;;;;;;;41.40;22.60;;;;;;;7.42;nan;99656.13;5043535;28;20020;-74
2023/12/14 08:48:00;;;;;;;39.75;21.35;;;;;;;7.46;nan;99670.41;5060488;28;20143;-74
2023/12/14 08:50:28;;;;;;;40.85;21.40;;;;;;;7.44;nan;99664.56;5046118;28;20051;-74
2023/12/14 08:52:54;;;;;;;41.92;21.27;;;;;;;7.50;nan;99674.19;5045803;28;20084;-73
2023/12/14 08:55:19;;;;;;;41.25;21.73;;;;;;;7.42;nan;99659.56;5060969;28;20454;-75
2023/12/14 08:57:44;;;;;;;44.13;23.45;;;;;;;7.50;nan;99657.66;5049221;28;20059;-73
2023/12/14 09:00:11;;;;;;;42.30;21.00;;;;;;;7.44;nan;99654.91;5061822;28;20025;-74
2023/12/14 09:02:36;;;;;;;40.08;19.45;;;;;;;7.47;nan;99669.41;5045937;28;20462;-74
2023/12/14 09:05:04;;;;;;;44.28;21.17;;;;;;;7.60;nan;99691.97;5059062;28;20039;-73
2023/12/14 09:07:30;;;;;;;47.42;22.98;;;;;;;7.57;nan;99680.13;5064645;28;20107;-73
2023/12/14 09:09:55;;;;;;;53.10;26.15;;;;;;;7.54;nan;99682.38;5060171;28;20431;-73
2023/12/14 09:12:21;;;;;;;52.45;27.33;;;;;;;7.60;nan;99705.09;5057912;28;20387;-73
2023/12/14 09:14:47;;;;;;;54.50;26.90;;;;;;;7.64;nan;99703.63;5045195;28;20123;-73
2023/12/14 09:17:13;;;;;;;49.28;23.70;;;;;;;7.69;nan;99702.97;5057213;28;20028;-73
2023/12/14 09:19:38;;;;;;;41.67;21.13;;;;;;;7.60;nan;99692.78;5062037;28;20082;-74
2023/12/14 09:22:04;;;;;;;43.92;21.20;;;;;;;7.63;nan;99691.53;5062692;28;20029;-73
2023/12/14 09:24:29;;;;;;;40.55;21.42;;;;;;;;;;5058544;28;20028;-73
2023/12/14 09:26:55;;;;;;;42.95;21.25;;;;;;;7.70;nan;99701.94;5057875;28;20054;-73
2023/12/14 09:29:20;;;;;;;46.58;23.73;;;;;;;7.64;nan;99703.63;5058933;28;20033;-74
2023/12/14 09:31:45;;;;;;;37.38;19.38;;;;;;;7.74;nan;99711.75;5059948;28;20017;-74
2023/12/14 09:34:11;;;;;;;37.95;19.88;;;;;;;7.76;nan;99708.91;5057948;28;20021;-74
2023/12/14 09:36:37;;;;;;;37.72;20.00;;;;;;;7.76;nan;99706.28;5062704;28;20028;-73
2023/12/14 09:39:03;;;;;;;39.78;20.20;;;;;;;7.73;nan;99702.25;5058870;28;20569;-72
2023/12/14 09:41:29;;;;;;;37.83;19.23;;;;;;;7.80;nan;99705.59;5049208;28;20602;-72
2023/12/14 09:43:55;;;;;;;31.63;18.75;;;;;;;7.70;nan;99684.38;5063405;28;20044;-73
2023/12/14 09:46:21;;;;;;;35.80;19.15;;;;;;;7.88;nan;99718.41;5039049;28;20017;-72
2023/12/14 09:48:50;;;;;;;32.92;18.73;;;;;;;7.89;nan;99717.38;5059398;28;20024;-73
2023/12/14 09:51:16;;;;;;;28.65;17.35;;;;;;;7.88;nan;99710.53;5045704;28;20043;-73
2023/12/14 09:53:41;;;;;;;29.70;16.70;;;;;;;7.85;nan;99705.75;5061163;28;20033;-73
2023/12/14 09:56:07;;;;;;;24.60;14.85;;;;;;;7.94;nan;99721.16;5048469;28;20137;-73
2023/12/14 09:58:33;;;;;;;22.75;14.25;;;;;;;7.96;nan;99725.13;5059346;28;20028;-73
2023/12/14 10:01:00;;;;;;;23.88;14.57;;;;;;;7.93;nan;99716.94;5059433;28;20017;-73
2023/12/14 10:03:28;;;;;;;20.52;12.55;;;;;;;7.91;nan;99709.28;5060323;28;20033;-73
2023/12/14 10:05:55;;;;;;;21.95;12.68;;;;;;;7.84;nan;99692.84;5059787;28;20074;-73
2023/12/14 10:08:21;;;;;;;21.58;12.75;;;;;;;8.02;nan;99718.19;5059121;28;20601;-73
2023/12/14 10:10:49;;;;;;;22.75;13.07;;;;;;;8.02;nan;99720.81;5059626;28;20592;-73
2023/12/14 10:13:15;;;;;;;25.60;13.90;;;;;;;8.05;nan;99729.03;5058233;28;20025;-72
2023/12/14 10:15:41;;;;;;;33.90;19.00;;;;;;;8.05;nan;99728.25;5058674;28;20433;-72
2023/12/14 10:18:07;;;;;;;30.00;17.40;;;;;;;8.02;nan;99720.81;5040618;28;20483;-73
2023/12/14 10:20:33;;;;;;;23.58;13.55;;;;;;;8.04;nan;99713.53;5059091;28;20035;-71
2023/12/14 10:22:58;;;;;;;24.10;13.85;;;;;;;8.09;nan;99716.25;5061163;28;20520;-72
2023/12/14 10:25:23;;;;;;;23.55;13.82;;;;;;;8.11;nan;99711.59;5061567;28;20020;-70
2023/12/14 10:27:55;;;;;;;25.77;13.93;;;;;;;8.14;nan;99703.31;5061909;28;20520;-70
2023/12/14 10:30:20;;;;;;;23.52;12.75;;;;;;;8.17;nan;99702.06;5058074;28;20040;-70
2023/12/14 10:32:49;;;;;;;20.63;12.75;;;;;;;8.25;nan;99707.75;5059000;28;20395;-71
2023/12/14 10:35:16;;;;;;;21.13;12.13;;;;;;;8.21;nan;99705.81;5046274;28;20025;-70
2023/12/14 10:37:43;;;;;;;20.85;12.13;;;;;;;8.29;nan;99727.25;5065216;28;20258;-69
2023/12/14 10:40:14;;;;;;;23.10;12.40;;;;;;;8.32;nan;99720.75;5077737;28;20051;-71
2023/12/14 10:42:42;;;;;;;21.40;12.50;;;;;;;8.24;nan;99708.00;5070671;28;20028;-70
2023/12/14 10:45:10;;;;;;;22.80;12.47;;;;;;;8.29;nan;99724.63;5070234;28;20509;-72
2023/12/14 10:47:38;;;;;;;20.88;11.93;;;;;;;8.03;nan;99689.13;5054052;28;20102;-73
2023/12/14 10:50:05;;;;;;;23.75;13.18;;;;;;;8.29;nan;99722.00;5063507;28;20032;-72
2023/12/14 10:52:35;;;;;;;22.95;13.73;;;;;;;8.37;nan;99741.88;5041261;28;20110;-72
2023/12/14 10:55:04;;;;;;;;;;;;;;;8.48;nan;99756.06;5055946;28;20029;-72
2023/12/14 10:57:30;;;;;;;;;;;;;;;8.48;nan;99756.06;5056844;28;19908;-72
2023/12/14 11:00:04;;;;;;;23.73;12.73;;;;;;;8.40;nan;99743.25;5056508;28;19908;-71
2023/12/14 11:02:42;;;;;;;26.38;13.32;;;;;;;8.49;nan;99749.78;5056027;28;20024;-71
2023/12/14 11:05:11;;;;;;;21.50;12.40;;;;;;;8.34;nan;99736.28;5057279;28;20037;-72
2023/12/14 11:07:57;;;;;;;27.67;15.40;;;;;;;8.49;nan;99752.41;5054870;28;20025;-71
2023/12/14 11:10:27;;;;;;;26.05;14.35;;;;;;;8.41;nan;99747.50;5046033;28;20032;-71
2023/12/14 11:13:03;;;;;;;25.17;14.57;;;;;;;8.44;nan;99754.91;5056629;28;20107;-72
2023/12/14 11:15:30;;;;;;;23.55;12.98;;;;;;;8.51;nan;99768.72;5057133;28;20029;-70
2023/12/14 11:18:08;;;;;;;22.58;11.95;;;;;;;8.56;nan;99773.28;5039049;28;20056;-72
2023/12/14 11:20:46;;;;;;;20.80;11.50;;;;;;;8.58;nan;99769.41;5036712;28;20386;-71
2023/12/14 11:23:30;;;;;;;19.10;11.00;;;;;;;8.58;nan;99761.53;5041746;28;20571;-71
2023/12/14 11:26:04;;;;;;;19.45;11.60;;;;;;;8.53;nan;99758.81;5055214;28;20032;-72
2023/12/14 11:28:31;;;;;;;21.08;11.60;;;;;;;8.50;nan;99760.06;5055156;28;20029;-70
2023/12/14 11:30:57;;;;;;;20.52;11.77;;;;;;;8.56;nan;99776.72;5037893;28;20028;-70
2023/12/14 11:33:23;;;;;;;24.45;13.13;;;;;;;8.49;nan;99765.53;5055241;28;20082;-72
2023/12/14 11:35:50;;;;;;;25.52;13.75;;;;;;;8.44;nan;99757.53;5060441;28;20912;-72
2023/12/14 11:38:17;;;;;;;27.88;15.50;;;;;;;8.41;nan;99739.63;5060021;28;20077;-75
2023/12/14 11:40:43;;;;;;;29.90;15.95;;;;;;;8.46;nan;99750.25;5057145;28;20029;-72
2023/12/14 11:43:09;;;;;;;26.58;15.55;;;;;;;8.55;nan;99759.38;5036295;28;20029;-73